Time;durP1;ratioP1;P1;durP2;ratioP2;P2;SDS_P1;SDS_P2;PMS_P1;PMS_P2;Temp;Humidity;BMP_temperature;BMP_pressure;BME280_temperature;BME280_humidity;BME280_pressure;Samples;Min_cycle;Max_cycle;Signal;HPM_P1;HPM_P2
2023/07/21 00:01:48;;;;;;;;;1.00;1.00;;;;;22.82;39.24;100860.63;5059672;28;45355;-74
2023/07/21 00:04:14;;;;;;;;;2.33;2.33;;;;;22.95;39.13;100868.66;5059543;28;45228;-74
2023/07/21 00:06:43;;;;;;;;;1.67;1.67;;;;;22.87;38.79;100848.09;5041701;28;45270;-74
2023/07/21 00:09:09;;;;;;;;;2.00;2.00;;;;;22.77;39.04;100818.75;5059280;28;46928;-74
2023/07/21 00:11:34;;;;;;;;;2.33;2.33;;;;;22.56;38.95;100783.91;5059144;28;45345;-74
2023/07/21 00:13:59;;;;;;;;;2.00;2.00;;;;;22.89;39.73;100853.31;5059354;28;45323;-73
2023/07/21 00:16:27;;;;;;;;;2.00;2.00;;;;;22.94;39.50;100856.16;5059766;28;45610;-73
2023/07/21 00:18:52;;;;;;;;;1.33;1.33;;;;;22.91;40.24;100845.78;5059219;28;45673;-72
2023/07/21 00:21:19;;;;;;;;;2.00;2.00;;;;;22.97;39.85;100853.00;5059611;28;45420;-74
2023/07/21 00:23:44;;;;;;;;;1.00;1.00;;;;;22.94;40.16;100840.72;5041635;28;45444;-73
2023/07/21 00:26:09;;;;;;;;;3.00;2.00;;;;;22.92;40.19;100842.00;5059331;28;45317;-75
2023/07/21 00:28:35;;;;;;;;;1.33;1.33;;;;;22.86;40.44;100838.31;5058477;28;63709;-71
2023/07/21 00:31:00;;;;;;;;;3.00;2.00;;;;;22.85;40.08;100842.06;5059184;28;45532;-71
2023/07/21 00:33:25;;;;;;;;;2.00;2.00;;;;;22.62;40.42;100820.94;5059125;28;54421;-72
2023/07/21 00:35:52;;;;;;;;;2.00;1.00;;;;;22.52;40.93;100812.50;5059474;28;45355;-72
2023/07/21 00:38:17;;;;;;;;;4.33;2.00;;;;;22.53;40.67;100805.19;5059112;28;45532;-74
2023/07/21 00:40:44;;;;;;;;;0.67;0.67;;;;;22.47;40.16;100812.34;5059210;28;45312;-73
2023/07/21 00:43:09;;;;;;;;;1.00;1.00;;;;;22.69;40.11;100854.25;5040921;28;45515;-73
2023/07/21 00:45:39;;;;;;;;;2.00;2.00;;;;;22.78;40.29;100862.94;5041443;28;45258;-72
2023/07/21 00:48:07;;;;;;;;;1.00;1.00;;;;;22.53;39.11;100825.00;5040982;28;48302;-74
2023/07/21 00:50:56;;;;;;;;;1.33;0.67;;;;;22.77;39.35;100845.84;5059207;28;45565;-73
2023/07/21 00:53:23;;;;;;;;;3.00;3.00;;;;;22.58;39.82;100819.75;5059141;28;45466;-74
2023/07/21 00:55:50;;;;;;;;;3.33;2.00;;;;;22.83;40.32;100859.63;5058993;28;45249;-72
2023/07/21 00:58:17;;;;;;;;;4.00;3.00;;;;;22.70;40.78;100831.53;5058200;28;46834;-74
2023/07/21 01:00:43;;;;;;;;;3.00;1.33;;;;;22.86;40.01;100842.91;5058752;28;45313;-74
2023/07/21 01:03:13;;;;;;;;;1.00;1.00;;;;;22.75;40.23;100825.44;5058964;28;46608;-74
2023/07/21 01:05:42;;;;;;;;;1.00;1.00;;;;;22.83;40.67;100848.78;5041236;28;45360;-72
2023/07/21 01:08:10;;;;;;;;;2.00;2.00;;;;;22.76;41.87;100837.94;5058537;28;45757;-73
2023/07/21 01:10:37;;;;;;;;;1.00;1.00;;;;;22.80;43.00;100849.16;5058383;28;45557;-73
2023/07/21 01:13:04;;;;;;;;;1.33;1.33;;;;;22.83;43.58;100846.06;5058858;28;45263;-73
2023/07/21 01:15:34;;;;;;;;;3.67;2.00;;;;;22.83;43.98;100854.19;5058849;28;45542;-75
2023/07/21 01:17:59;;;;;;;;;4.00;2.33;;;;;22.82;44.00;100847.91;5057300;28;47805;-73
2023/07/21 01:20:27;;;;;;;;;1.00;1.00;;;;;22.74;43.64;100835.44;5058610;28;45440;-72
2023/07/21 01:22:57;;;;;;;;;2.67;2.67;;;;;22.68;42.71;100841.75;5058866;28;45254;-72
2023/07/21 01:25:24;;;;;;;;;3.00;3.00;;;;;22.31;42.68;100773.06;5059049;28;45470;-72
2023/07/21 01:27:52;;;;;;;;;2.67;1.00;;;;;22.80;42.49;100857.28;5058033;28;46755;-72
2023/07/21 01:30:20;;;;;;;;;1.00;1.00;;;;;22.70;42.16;100844.25;5057326;28;45589;-72
2023/07/21 01:32:46;;;;;;;;;2.00;2.00;;;;;22.69;42.58;100848.84;5058189;28;45530;-74
2023/07/21 01:35:15;;;;;;;;;2.00;1.00;;;;;22.70;42.62;100855.91;5058343;28;45539;-72
2023/07/21 01:37:43;;;;;;;;;1.00;1.00;;;;;22.67;42.86;100850.13;5057899;28;46616;-74
2023/07/21 01:40:11;;;;;;;;;1.67;1.67;;;;;22.50;43.28;100822.72;5058141;28;45218;-72
2023/07/21 01:42:37;;;;;;;;;2.00;2.00;;;;;22.44;43.76;100812.78;5058067;28;45294;-73
2023/07/21 01:45:03;;;;;;;;;2.00;2.00;;;;;22.54;44.54;100832.06;5058554;28;45360;-73
2023/07/21 01:47:35;;;;;;;;;2.00;2.00;;;;;22.54;44.42;100834.78;5058061;28;45928;-74
2023/07/21 01:50:03;;;;;;;;;2.67;2.00;;;;;22.53;45.66;100833.13;5058423;28;45294;-75
2023/07/21 01:52:30;;;;;;;;;3.00;2.00;;;;;22.54;46.04;100845.63;5058480;28;45297;-74
2023/07/21 01:55:00;;;;;;;;;4.67;2.33;;;;;22.49;45.50;100831.09;5058880;28;45419;-72
2023/07/21 01:57:31;;;;;;;;;2.00;2.00;;;;;22.48;45.55;100829.44;5057649;28;46693;-72
2023/07/21 01:59:59;;;;;;;;;3.33;2.67;;;;;22.20;45.00;100790.00;5057694;28;45515;-72
2023/07/21 02:02:25;;;;;;;;;2.00;2.00;;;;;22.43;45.59;100827.38;5057976;28;45496;-78
2023/07/21 02:04:51;;;;;;;;;3.33;3.33;;;;;22.39;44.84;100823.44;5057727;28;45518;-73
2023/07/21 02:07:20;;;;;;;;;2.00;2.00;;;;;22.35;44.80;100819.50;5057905;28;46002;-73
2023/07/21 02:09:49;;;;;;;;;3.00;2.00;;;;;22.35;44.98;100828.47;5058080;28;45228;-72
2023/07/21 02:12:15;;;;;;;;;1.00;1.00;;;;;22.31;43.81;100829.13;5057410;28;45524;-73
2023/07/21 02:14:40;;;;;;;;;1.00;1.00;;;;;22.25;44.30;100814.59;5057926;28;45518;-73
2023/07/21 02:17:05;;;;;;;;;1.67;1.33;;;;;22.27;44.17;100817.06;5058132;28;46437;-73
2023/07/21 02:19:31;;;;;;;;;1.00;1.00;;;;;21.82;44.37;100752.13;5058597;28;45354;-73
2023/07/21 02:21:56;;;;;;;;;1.67;1.67;;;;;22.22;44.62;100819.59;5057907;28;45471;-72
2023/07/21 02:24:22;;;;;;;;;2.00;2.00;;;;;22.23;44.49;100821.28;5040076;28;45483;-72
2023/07/21 02:26:47;;;;;;;;;1.00;1.00;;;;;22.03;44.46;100795.13;5057495;28;45478;-71
2023/07/21 02:29:12;;;;;;;;;2.00;2.00;;;;;22.15;44.30;100817.75;5057145;28;54803;-73
2023/07/21 02:31:38;;;;;;;;;2.67;2.00;;;;;21.85;44.06;100770.66;5057621;28;45469;-72
2023/07/21 02:34:05;;;;;;;;;1.00;1.00;;;;;22.05;44.03;100812.00;5070639;27;45347;-75
2023/07/21 02:36:30;;;;;;;;;1.33;1.33;;;;;22.03;44.18;100816.78;5078301;28;46767;-71
2023/07/21 02:38:56;;;;;;;;;2.00;2.00;;;;;22.09;44.43;100821.34;5077690;27;45472;-72
2023/07/21 02:41:21;;;;;;;;;3.00;1.75;;;;;22.06;44.08;100816.38;5078036;28;45296;-74
2023/07/21 02:43:46;;;;;;;;;2.00;1.00;;;;;21.86;44.66;100780.44;5078485;28;45296;-72
2023/07/21 02:46:13;;;;;;;;;1.00;1.00;;;;;22.05;44.41;100819.31;5060461;28;46393;-72
2023/07/21 02:48:38;;;;;;;;;2.33;1.00;;;;;21.93;44.71;100805.56;5079225;28;45377;-73
2023/07/21 02:51:03;;;;;;;;;1.67;1.67;;;;;22.00;44.54;100808.25;5078098;28;45941;-74
2023/07/21 02:53:30;;;;;;;;;1.00;1.00;;;;;21.88;44.32;100797.28;5078016;28;45327;-73
2023/07/21 02:55:57;;;;;;;;;1.67;1.67;;;;;21.62;44.18;100760.34;5077137;28;46143;-72
2023/07/21 02:58:26;;;;;;;;;1.00;1.00;;;;;21.81;44.37;100807.31;5058873;28;45490;-73
2023/07/21 03:00:57;;;;;;;;;2.00;2.00;;;;;21.87;44.50;100828.09;5077350;28;45529;-70
2023/07/21 03:03:25;;;;;;;;;1.00;1.00;;;;;21.56;44.49;100786.41;5077991;28;45335;-72
2023/07/21 03:05:51;;;;;;;;;2.33;1.67;;;;;21.42;44.46;100770.44;5077171;28;45595;-72
2023/07/21 03:08:19;;;;;;;;;3.33;1.67;;;;;21.71;45.11;100817.78;5077130;28;45564;-74
2023/07/21 03:10:45;;;;;;;;;0.00;0.00;;;;;21.74;44.68;100823.56;5077410;28;45349;-72
2023/07/21 03:13:12;;;;;;;;;1.00;1.00;;;;;21.70;45.06;100821.53;5077374;28;45396;-72
2023/07/21 03:15:38;;;;;;;;;5.33;5.33;;;;;21.58;45.20;100801.59;5076989;28;46298;-73
2023/07/21 03:18:04;;;;;;;;;2.00;1.00;;;;;21.52;44.73;100793.28;5077161;28;45659;-73
2023/07/21 03:20:29;;;;;;;;;2.67;1.33;;;;;21.61;44.81;100811.97;5077449;28;45371;-74
2023/07/21 03:22:55;;;;;;;;;2.33;2.33;;;;;21.32;45.33;100775.47;5077590;28;45494;-74
2023/07/21 03:25:20;;;;;;;;;1.00;1.00;;;;;21.47;45.32;100812.03;5077310;28;45553;-73
2023/07/21 03:27:46;;;;;;;;;2.00;2.00;;;;;21.46;45.38;100834.72;5076783;28;45479;-73
2023/07/21 03:30:13;;;;;;;;;2.00;1.33;;;;;21.30;45.59;100812.72;5077966;28;45349;-72
2023/07/21 03:32:38;;;;;;;;;1.00;1.00;;;;;21.18;45.61;100785.47;5077352;28;45467;-73
2023/07/21 03:35:05;;;;;;;;;2.00;2.00;;;;;21.46;46.00;100832.03;5076641;28;46402;-71
2023/07/21 03:37:34;;;;;;;;;4.00;3.00;;;;;21.47;46.58;100825.56;5077002;28;45256;-73
2023/07/21 03:40:06;;;;;;;;;2.00;2.00;;;;;21.39;46.78;100803.31;5076898;28;45420;-73
2023/07/21 03:42:35;;;;;;;;;1.33;1.33;;;;;21.52;46.65;100830.34;5077282;28;45330;-75
2023/07/21 03:45:04;;;;;;;;;3.00;2.00;;;;;21.51;46.96;100829.50;5058829;28;46327;-73
2023/07/21 03:47:36;;;;;;;;;3.00;3.00;;;;;21.44;46.35;100817.88;5077169;28;45327;-72
2023/07/21 03:50:02;;;;;;;;;2.00;2.00;;;;;21.53;46.55;100829.28;5077285;28;45266;-72
2023/07/21 03:52:28;;;;;;;;;2.33;2.33;;;;;21.55;46.86;100835.31;5077086;28;45331;-72
2023/07/21 03:54:53;;;;;;;;;2.00;2.00;;;;;21.15;46.60;100781.31;5079029;28;46468;-71
2023/07/21 03:57:20;;;;;;;;;2.00;2.00;;;;;21.42;46.87;100829.94;5080181;28;45244;-74
2023/07/21 03:59:46;;;;;;;;;2.67;2.00;;;;;21.52;47.40;100852.81;5080335;28;45528;-73
2023/07/21 04:02:11;;;;;;;;;3.33;2.33;;;;;21.51;46.47;100847.59;5080255;28;45438;-73
2023/07/21 04:04:36;;;;;;;;;1.33;1.33;;;;;21.41;46.31;100845.34;5079285;28;60817;-72
2023/07/21 04:07:05;;;;;;;;;2.00;2.00;;;;;21.35;46.64;100823.72;5079719;28;45485;-72
2023/07/21 04:09:31;;;;;;;;;4.00;4.00;;;;;21.41;46.39;100844.50;5080065;28;45273;-74
2023/07/21 04:11:56;;;;;;;;;2.67;2.00;;;;;21.35;46.52;100846.19;5079850;28;45335;-72
2023/07/21 04:14:21;;;;;;;;;3.33;1.00;;;;;21.28;46.86;100837.28;5079345;28;45560;-73
2023/07/21 04:16:47;;;;;;;;;3.67;2.00;;;;;21.35;47.05;100854.31;5080274;28;45342;-72
2023/07/21 04:19:12;;;;;;;;;2.00;2.00;;;;;21.34;47.27;100844.53;5079470;28;49260;-72
2023/07/21 04:21:37;;;;;;;;;3.33;2.33;;;;;21.28;47.13;100850.81;5080254;28;45524;-71
2023/07/21 04:24:03;;;;;;;;;3.00;3.00;;;;;21.30;47.13;100848.72;5079241;28;46311;-73
2023/07/21 04:26:28;;;;;;;;;3.00;3.00;;;;;21.29;47.57;100846.22;5079437;28;45304;-72
2023/07/21 04:28:54;;;;;;;;;3.00;3.00;;;;;21.14;47.11;100827.50;5079781;28;45315;-73
2023/07/21 04:31:21;;;;;;;;;3.33;3.33;;;;;21.31;47.33;100855.78;5079949;28;45218;-73
2023/07/21 04:33:48;;;;;;;;;2.00;2.00;;;;;21.33;46.76;100856.41;5079393;28;46837;-73
2023/07/21 04:36:13;;;;;;;;;3.67;2.67;;;;;21.05;46.91;100821.50;5061100;28;45384;-73
2023/07/21 04:38:39;;;;;;;;;2.00;2.00;;;;;21.28;47.71;100853.50;5078662;28;56879;-72
2023/07/21 04:41:04;;;;;;;;;2.33;2.33;;;;;21.31;47.92;100854.94;5079070;28;45435;-73
2023/07/21 04:43:29;;;;;;;;;2.00;2.00;;;;;21.30;47.43;100853.28;5079355;28;57273;-74
2023/07/21 04:45:55;;;;;;;;;2.00;2.00;;;;;20.99;48.12;100797.16;5079018;28;53990;-73
2023/07/21 04:48:21;;;;;;;;;3.00;2.00;;;;;21.27;48.71;100849.13;5079311;28;45304;-73
2023/07/21 04:50:51;;;;;;;;;3.00;3.00;;;;;21.20;48.64;100842.88;5061225;28;45450;-71
2023/07/21 04:53:16;;;;;;;;;2.67;1.00;;;;;21.02;48.92;100802.13;5079439;28;46944;-73
2023/07/21 04:55:41;;;;;;;;;3.00;3.00;;;;;21.20;49.05;100841.00;5078688;28;51713;-71
2023/07/21 04:58:08;;;;;;;;;2.00;2.00;;;;;21.13;48.78;100832.06;5060042;28;45397;-73
2023/07/21 05:00:34;;;;;;;;;2.00;2.00;;;;;21.04;48.42;100814.44;5079294;28;45392;-73
2023/07/21 05:03:00;;;;;;;;;3.33;1.33;;;;;21.02;48.19;100807.53;5078953;28;46467;-73
2023/07/21 05:05:27;;;;;;;;;3.00;2.00;;;;;21.05;48.08;100812.56;5077544;28;45475;-72
2023/07/21 05:07:52;;;;;;;;;3.33;2.33;;;;;21.22;46.93;100830.81;5078985;28;45320;-72
2023/07/21 05:10:17;;;;;;;;;3.00;3.00;;;;;20.94;46.91;100789.69;5079332;28;45478;-72
2023/07/21 05:12:43;;;;;;;;;2.00;2.00;;;;;21.26;46.22;100833.97;5078125;28;62725;-74
2023/07/21 05:15:08;;;;;;;;;3.00;2.00;;;;;21.23;46.48;100826.25;5079096;28;45300;-74
2023/07/21 05:17:34;;;;;;;;;1.00;1.00;;;;;21.21;46.52;100831.84;5079102;28;45596;-73
2023/07/21 05:19:59;;;;;;;;;4.00;3.00;;;;;21.16;46.74;100820.81;5079367;28;45156;-73
2023/07/21 05:22:25;;;;;;;;;4.00;3.00;;;;;21.18;46.54;100828.72;5060388;28;54774;-74
2023/07/21 05:24:51;;;;;;;;;1.00;0.00;;;;;21.27;46.62;100842.91;5078444;28;45295;-72
2023/07/21 05:27:17;;;;;;;;;2.00;2.00;;;;;21.05;46.83;100799.03;5078329;28;45515;-73
2023/07/21 05:29:42;;;;;;;;;4.00;4.00;;;;;21.29;46.74;100844.34;5078981;28;45429;-73
2023/07/21 05:32:08;;;;;;;;;3.00;3.00;;;;;21.30;46.81;100847.88;5078583;28;45508;-74
2023/07/21 05:34:34;;;;;;;;;2.00;2.00;;;;;20.77;47.29;100751.47;5078644;28;45541;-74
2023/07/21 05:37:00;;;;;;;;;2.33;2.33;;;;;21.24;47.32;100838.75;5078490;28;45466;-73
2023/07/21 05:39:29;;;;;;;;;3.00;2.00;;;;;21.29;47.41;100847.06;5078538;28;45273;-71
2023/07/21 05:41:56;;;;;;;;;3.33;3.33;;;;;21.32;47.53;100840.38;5060006;28;47797;-74
2023/07/21 05:44:21;;;;;;;;;2.33;1.00;;;;;21.30;47.29;100828.94;5079153;28;45340;-74
2023/07/21 05:46:47;;;;;;;;;3.00;3.00;;;;;21.25;47.57;100841.25;5078595;28;47394;-73
2023/07/21 05:49:14;;;;;;;;;3.00;3.00;;;;;21.18;47.50;100823.31;5078324;28;51995;-74
2023/07/21 05:51:39;;;;;;;;;4.00;3.00;;;;;21.07;46.95;100794.25;5072433;28;45548;-73
2023/07/21 05:54:05;;;;;;;;;3.00;2.67;;;;;21.29;46.86;100824.59;5065874;27;46161;-73
2023/07/21 05:56:30;;;;;;;;;1.67;1.67;;;;;21.30;46.68;100832.47;5065725;28;45444;-73
2023/07/21 05:58:55;;;;;;;;;2.67;1.67;;;;;21.32;46.44;100824.97;5065096;28;45563;-74
2023/07/21 06:01:24;;;;;;;;;2.67;2.00;;;;;21.31;46.84;100839.56;5065963;28;46164;-76
2023/07/21 06:03:49;;;;;;;;;2.67;2.00;;;;;21.33;46.59;100847.44;5063480;28;45831;-73
2023/07/21 06:06:14;;;;;;;;;3.00;1.67;;;;;21.33;47.01;100832.06;5066567;27;45446;-73
2023/07/21 06:08:39;;;;;;;;;2.33;2.33;;;;;21.14;47.20;100811.28;5048712;28;45424;-73
2023/07/21 06:11:05;;;;;;;;;2.00;2.00;;;;;21.29;47.52;100830.81;5066669;28;45458;-72
2023/07/21 06:13:30;;;;;;;;;4.33;2.00;;;;;21.39;47.84;100846.59;5078956;27;45498;-72
2023/07/21 06:15:56;;;;;;;;;3.00;3.00;;;;;21.42;47.30;100859.69;5059791;28;45486;-73
2023/07/21 06:18:22;;;;;;;;;2.33;2.33;;;;;21.35;46.36;100848.06;5078290;28;45265;-72
2023/07/21 06:20:51;;;;;;;;;2.00;2.00;;;;;21.42;46.52;100841.59;5059794;28;47859;-73
2023/07/21 06:23:16;;;;;;;;;2.00;2.00;;;;;21.47;46.37;100841.81;5077795;28;45335;-73
2023/07/21 06:25:41;;;;;;;;;2.33;2.33;;;;;21.53;46.53;100849.06;5077750;28;45474;-74
2023/07/21 06:28:07;;;;;;;;;3.33;3.00;;;;;21.52;46.95;100841.16;5077539;28;45212;-74
2023/07/21 06:30:33;;;;;;;;;3.00;3.00;;;;;21.52;46.71;100836.56;5077299;28;45715;-75
2023/07/21 06:32:58;;;;;;;;;2.00;2.00;;;;;21.59;46.63;100858.19;5077329;28;45319;-73
2023/07/21 06:35:24;;;;;;;;;3.33;3.33;;;;;21.64;45.96;100863.81;5060272;28;47916;-73
2023/07/21 06:37:50;;;;;;;;;4.00;3.00;;;;;21.11;45.63;100776.56;5078258;28;45253;-74
2023/07/21 06:40:16;;;;;;;;;5.00;3.67;;;;;21.64;45.63;100857.56;5077448;28;46509;-74
2023/07/21 06:42:44;;;;;;;;;2.00;2.00;;;;;21.62;46.20;100862.34;5077608;27;45561;-72
2023/07/21 06:45:10;;;;;;;;;3.33;3.00;;;;;21.59;45.99;100851.94;5059265;28;45373;-73
2023/07/21 06:47:36;;;;;;;;;5.00;5.00;;;;;21.60;45.26;100854.44;5077662;28;45453;-72
2023/07/21 06:50:01;;;;;;;;;3.00;3.00;;;;;21.31;45.13;100807.09;5058670;28;46917;-73
2023/07/21 06:52:27;;;;;;;;;4.00;3.00;;;;;21.64;45.22;100855.69;5077442;27;45220;-75
2023/07/21 06:54:52;;;;;;;;;3.67;3.67;;;;;21.69;44.75;100857.75;5077497;28;45295;-74
2023/07/21 06:57:18;;;;;;;;;3.67;3.67;;;;;21.33;45.21;100787.97;5058729;28;45602;-74
2023/07/21 06:59:44;;;;;;;;;4.67;3.67;;;;;21.76;45.16;100847.72;5077063;28;45746;-75
2023/07/21 07:02:09;;;;;;;;;5.67;5.00;;;;;21.60;45.19;100821.13;5076890;27;45609;-74
2023/07/21 07:04:34;;;;;;;;;6.00;4.33;;;;;21.81;45.35;100845.19;5077829;27;45150;-75
2023/07/21 07:07:00;;;;;;;;;5.33;5.33;;;;;21.76;45.43;100836.88;5061902;28;45302;-74
2023/07/21 07:09:25;;;;;;;;;7.00;6.00;;;;;21.89;45.19;100850.38;5078921;27;45615;-76
2023/07/21 07:11:51;;;;;;;;;3.33;3.33;;;;;21.79;45.14;100828.34;5077795;28;45358;-73
2023/07/21 07:14:17;;;;;;;;;8.00;6.00;;;;;21.65;44.74;100803.22;5077152;27;45439;-74
2023/07/21 07:16:43;;;;;;;;;3.00;3.00;;;;;21.97;44.80;100852.00;5076588;28;45550;-73
2023/07/21 07:19:09;;;;;;;;;5.67;5.33;;;;;22.07;44.94;100860.53;5076511;28;45799;-72
2023/07/21 07:21:35;;;;;;;;;6.67;2.00;;;;;22.01;44.68;100837.78;5076623;28;45555;-73
2023/07/21 07:24:00;;;;;;;;;8.00;6.00;;;;;21.99;44.72;100847.19;5065693;28;45404;-74
2023/07/21 07:26:26;;;;;;;;;6.33;5.33;;;;;22.00;44.74;100848.84;5056500;28;45566;-72
2023/07/21 07:28:51;;;;;;;;;5.00;5.00;;;;;22.01;44.60;100856.75;5057753;28;46835;-74
2023/07/21 07:31:17;;;;;;;;;3.00;3.00;;;;;22.01;44.89;100861.34;5059782;28;45400;-75
2023/07/21 07:33:44;;;;;;;;;3.33;3.33;;;;;22.05;45.46;100859.91;5086308;27;45408;-74
2023/07/21 07:36:11;;;;;;;;;4.00;3.00;;;;;22.10;44.94;100858.22;5083440;27;45337;-73
2023/07/21 07:38:38;;;;;;;;;4.67;3.00;;;;;22.26;44.28;100873.13;5093200;27;45890;-73
2023/07/21 07:41:05;;;;;;;;;3.00;3.00;;;;;22.09;44.26;100807.81;5081673;27;46450;-74
2023/07/21 07:43:34;;;;;;;;;2.00;2.00;;;;;22.57;43.64;100864.16;5080608;27;45356;-73
2023/07/21 07:46:00;;;;;;;;;3.00;3.00;;;;;22.65;43.74;100868.47;5087968;27;45513;-73
2023/07/21 07:48:25;;;;;;;;;4.67;4.67;;;;;22.70;43.64;100871.34;5079703;28;45884;-72
2023/07/21 07:50:55;;;;;;;;;3.67;2.67;;;;;22.67;44.51;100856.38;5098228;27;45981;-72
2023/07/21 07:53:20;;;;;;;;;4.00;4.00;;;;;22.74;43.96;100857.13;5088531;27;45233;-73
2023/07/21 07:55:46;;;;;;;;;7.00;5.00;;;;;22.94;44.87;100877.84;5080183;28;45250;-72
2023/07/21 07:58:12;;;;;;;;;3.67;3.67;;;;;22.92;44.49;100863.69;5079511;28;45737;-72
2023/07/21 08:00:41;;;;;;;;;2.00;2.00;;;;;23.20;44.54;100876.78;5061704;28;45349;-74
2023/07/21 08:03:09;;;;;;;;;4.67;3.00;;;;;23.32;44.23;100861.44;5060636;28;45428;-72
2023/07/21 08:05:35;;;;;;;;;8.33;4.67;;;;;23.57;43.57;100873.06;5080774;28;45383;-73
2023/07/21 08:08:02;;;;;;;;;4.33;4.33;;;;;23.89;43.31;100892.75;5061506;28;47102;-73
2023/07/21 08:10:31;;;;;;;;;5.33;5.00;;;;;24.01;43.30;100878.38;5061477;28;45363;-73
2023/07/21 08:12:58;;;;;;;;;3.00;3.00;;;;;23.96;42.81;100862.78;5079676;28;45407;-73
2023/07/21 08:15:24;;;;;;;;;5.33;5.33;;;;;24.18;42.40;100879.41;5079670;28;45452;-74
2023/07/21 08:17:50;;;;;;;;;4.33;4.33;;;;;23.97;42.04;100829.97;5061033;28;47220;-75
2023/07/21 08:20:18;;;;;;;;;3.67;3.00;;;;;24.22;42.16;100872.44;5079612;28;45312;-73
2023/07/21 08:22:44;;;;;;;;;5.00;3.33;;;;;24.48;42.19;100884.88;5079755;28;45207;-76
2023/07/21 08:25:10;;;;;;;;;6.67;4.33;;;;;24.57;41.83;100872.59;5079367;28;45498;-75
2023/07/21 08:27:35;;;;;;;;;8.00;7.00;;;;;24.71;41.72;100878.66;5078680;28;46303;-73
2023/07/21 08:30:01;;;;;;;;;5.00;5.00;;;;;24.43;41.69;100817.63;5080338;28;45302;-73
2023/07/21 08:32:27;;;;;;;;;4.33;3.33;;;;;24.95;41.63;100893.94;5080834;28;45313;-74
2023/07/21 08:34:52;;;;;;;;;3.33;3.33;;;;;25.04;41.04;100891.75;5079782;28;45332;-74
2023/07/21 08:37:17;;;;;;;;;4.00;4.00;;;;;25.12;41.39;100888.66;5079873;28;45561;-74
2023/07/21 08:39:43;;;;;;;;;3.00;3.00;;;;;25.02;40.33;100864.75;5079775;28;45440;-74
2023/07/21 08:42:11;;;;;;;;;3.67;3.00;;;;;25.08;40.67;100852.94;5079664;28;45339;-75
2023/07/21 08:44:38;;;;;;;;;3.00;3.00;;;;;25.33;40.48;100882.63;5079529;28;45332;-74
2023/07/21 08:47:04;;;;;;;;;4.33;4.00;;;;;25.36;40.55;100860.34;5060723;28;45242;-74
2023/07/21 08:49:29;;;;;;;;;1.67;1.00;;;;;25.63;39.74;100887.06;5078752;28;45481;-72
2023/07/21 08:51:55;;;;;;;;;4.00;4.00;;;;;25.60;39.71;100872.03;5078863;28;45443;-73
2023/07/21 08:54:20;;;;;;;;;3.33;3.33;;;;;25.64;39.62;100872.41;5080755;27;45548;-73
2023/07/21 08:56:45;;;;;;;;;3.00;3.00;;;;;25.66;39.34;100881.97;5096122;27;56552;-72
2023/07/21 08:59:11;;;;;;;;;4.00;4.00;;;;;25.73;39.21;100884.59;5100068;27;45320;-76
2023/07/21 09:01:36;;;;;;;;;4.00;4.00;;;;;25.86;38.82;100894.41;5100824;27;45474;-76
2023/07/21 09:04:01;;;;;;;;;4.00;3.00;;;;;25.88;38.34;100879.47;5099627;27;45397;-76
2023/07/21 09:06:27;;;;;;;;;3.67;3.67;;;;;25.74;38.84;100875.34;5099104;27;45855;-76
2023/07/21 09:08:53;;;;;;;;;4.00;3.33;;;;;25.87;38.79;100894.16;5096017;27;45497;-74
2023/07/21 09:11:18;;;;;;;;;8.33;5.00;;;;;25.83;38.72;100873.06;5065069;27;45536;-74
2023/07/21 09:13:56;;;;;;;;;7.00;4.00;;;;;25.87;38.61;100877.00;5069138;27;45298;-74
2023/07/21 09:16:22;;;;;;;;;6.00;5.00;;;;;26.01;38.36;100883.78;5058005;28;45608;-72
2023/07/21 09:18:48;;;;;;;;;6.33;5.00;;;;;25.92;38.46;100868.91;5058107;28;45192;-73
2023/07/21 09:21:20;;;;;;;;;8.00;7.00;;;;;26.07;38.57;100894.56;5058162;28;45250;-73
2023/07/21 09:23:47;;;;;;;;;7.00;6.00;;;;;25.95;38.73;100852.91;5059850;28;45602;-73
2023/07/21 09:26:20;;;;;;;;;8.67;7.00;;;;;26.16;38.15;100886.00;5077551;28;45777;-71
2023/07/21 09:28:45;;;;;;;;;4.33;4.33;;;;;26.05;37.91;100871.34;5069808;28;45396;-73
2023/07/21 09:31:13;;;;;;;;;5.00;3.33;;;;;26.17;38.37;100883.00;5059128;28;45282;-73
2023/07/21 09:33:40;;;;;;;;;10.00;10.00;;;;;26.22;38.07;100895.91;5058487;28;45500;-73
2023/07/21 09:39:43;;;;;;;;;3.33;3.33;;;;;26.26;38.47;100880.75;5056595;28;45463;-76
2023/07/21 09:42:12;;;;;;;;;4.00;4.00;;;;;26.07;38.84;100850.97;5061560;28;45344;-76
2023/07/21 09:44:38;;;;;;;;;5.00;5.00;;;;;26.28;38.00;100884.88;5078483;28;45470;-78
2023/07/21 09:47:05;;;;;;;;;3.00;2.67;;;;;26.13;38.46;100849.16;5065968;27;46359;-75
2023/07/21 09:49:31;;;;;;;;;4.67;4.00;;;;;26.26;37.93;100864.38;5062765;28;45542;-79
2023/07/21 09:51:57;;;;;;;;;2.00;2.00;;;;;26.41;38.16;100888.38;5059834;28;45215;-81
2023/07/21 09:54:25;;;;;;;;;2.33;2.33;;;;;26.34;37.96;100883.91;5069989;28;45463;-77
2023/07/21 09:56:54;;;;;;;;;2.00;2.00;;;;;26.17;37.97;100858.50;5083505;27;46699;-78
2023/07/21 09:59:20;;;;;;;;;4.00;4.00;;;;;26.00;38.29;100839.38;5081525;28;45247;-74
2023/07/21 10:01:46;;;;;;;;;6.00;6.00;;;;;26.13;37.89;100861.94;5073354;27;45478;-74
2023/07/21 10:04:13;;;;;;;;;7.67;6.00;;;;;25.99;37.20;100851.34;5046794;28;45447;-72
2023/07/21 10:06:38;;;;;;;;;6.33;5.00;;;;;25.87;37.14;100836.13;5075037;28;46013;-76
2023/07/21 10:09:08;;;;;;;;;7.00;6.67;;;;;26.12;37.02;100890.28;5078138;27;45313;-72
2023/07/21 10:11:34;;;;;;;;;5.67;5.67;;;;;26.08;37.24;100895.38;5056351;28;45636;-72
2023/07/21 10:13:59;;;;;;;;;4.67;4.67;;;;;25.83;37.35;100859.44;5073178;27;45347;-71
2023/07/21 10:16:28;;;;;;;;;3.67;3.33;;;;;26.13;36.67;100895.47;5074154;27;46459;-71
2023/07/21 10:19:01;;;;;;;;;5.33;4.33;;;;;26.06;36.80;100875.72;5075977;27;45387;-71
2023/07/21 10:21:55;;;;;;;;;6.00;5.00;;;;;25.85;36.26;100830.09;5076882;27;45313;-71
2023/07/21 10:24:28;;;;;;;;;5.00;5.00;;;;;26.23;36.40;100898.41;5077155;27;45296;-72
2023/07/21 10:27:02;;;;;;;;;7.33;7.33;;;;;26.21;36.74;100894.25;5057402;27;48914;-71
2023/07/21 10:29:28;;;;;;;;;4.67;4.67;;;;;26.11;36.59;100894.91;5055728;28;46385;-72
2023/07/21 10:31:58;;;;;;;;;7.33;7.33;;;;;26.10;36.10;100898.69;5074087;28;45502;-70
2023/07/21 10:34:31;;;;;;;;;12.67;9.67;;;;;25.93;36.75;100903.25;5073909;27;45703;-72
2023/07/21 10:36:58;;;;;;;;;7.33;7.00;;;;;25.94;37.21;100904.91;5055469;28;46747;-73
2023/07/21 10:39:24;;;;;;;;;4.00;3.00;;;;;25.93;36.30;100909.53;5073755;28;45534;-72
2023/07/21 10:41:54;;;;;;;;;6.33;4.67;;;;;25.90;36.23;100884.66;5073934;28;45397;-72
2023/07/21 10:44:20;;;;;;;;;8.67;7.33;;;;;25.84;36.40;100891.91;5077511;27;45488;-72
2023/07/21 10:46:47;;;;;;;;;7.33;6.33;;;;;25.62;36.88;100850.84;5077249;27;46448;-71
2023/07/21 10:49:15;;;;;;;;;6.67;5.00;;;;;25.73;36.69;100882.69;5077257;27;45381;-72
2023/07/21 10:51:44;;;;;;;;;6.33;6.33;;;;;25.73;36.48;100888.16;5077344;28;45452;-73
2023/07/21 10:54:10;;;;;;;;;5.67;5.67;;;;;25.76;35.45;100893.09;5077363;28;45317;-72
2023/07/21 10:56:39;;;;;;;;;7.00;5.67;;;;;25.64;35.97;100883.28;5076886;28;46516;-72
2023/07/21 10:59:05;;;;;;;;;5.33;5.33;;;;;25.69;35.41;100881.53;5076946;28;45367;-71
2023/07/21 11:01:31;;;;;;;;;4.00;4.00;;;;;25.66;35.01;100887.44;5077249;28;45490;-71
2023/07/21 11:03:57;;;;;;;;;5.00;5.00;;;;;25.54;34.92;100851.22;5080197;27;45342;-73
2023/07/21 11:06:23;;;;;;;;;4.00;4.00;;;;;25.74;35.21;100894.41;5080393;27;45684;-71
2023/07/21 11:08:49;;;;;;;;;6.33;4.67;;;;;25.37;34.92;100834.78;5080254;27;45366;-73
2023/07/21 11:11:14;;;;;;;;;3.00;3.00;;;;;25.31;35.65;100833.03;5080333;28;45316;-72
2023/07/21 11:13:40;;;;;;;;;4.00;4.00;;;;;25.59;35.62;100864.94;5081006;28;45305;-73
2023/07/21 11:16:06;;;;;;;;;4.00;4.00;;;;;25.66;34.44;100890.16;5080373;27;45641;-72
2023/07/21 11:18:32;;;;;;;;;5.67;4.33;;;;;25.67;35.24;100894.56;5080402;27;45284;-72
2023/07/21 11:20:57;;;;;;;;;4.33;4.00;;;;;25.34;33.88;100823.56;5081072;28;45384;-72
2023/07/21 11:23:24;;;;;;;;;3.33;3.33;;;;;25.25;34.29;100800.53;5081143;27;45296;-72
2023/07/21 11:26:19;;;;;;;;;3.33;3.00;;;;;25.78;33.94;100887.41;5063165;28;47953;-70